Flight Track Log - Related Links

Times and Time Zones

All times are in EDT time to prevent confusion due to time zone crossing. See the N757AF flight status page for this flight to view local times or setup timezone preferences in your user account.

Time Position Orientation Groundspeed Altitude Reporting Facility
EDT Latitude Longitude Course Direction KTS MPH feet Rate Location/Type
Sun 07:43:45 PM 25.8003 -80.2744 87° East 149 171 1,200  Level Miami Center
Sun 07:45:04 PM 25.8042 -80.1917 85° East 232 267 4,500 2,577 Climbing Miami Center
Sun 07:46:28 PM 25.8131 -80.0786 78° East 277 319 8,200 2,917 Climbing Miami Center
Sun 07:47:28 PM 25.8294 -79.9939 49° Northeast 277 319 11,500 2,600 Climbing Miami Center
Sun 07:48:28 PM 25.8917 -79.9144 48° Northeast 284 327 13,400 2,400 Climbing Miami Center
Sun 07:49:28 PM 25.9603 -79.8286 37° Northeast 333 383 16,300 2,650 Climbing Miami Center
Sun 07:50:28 PM 26.0475 -79.7544 33° Northeast 363 418 18,700 2,500 Climbing Miami Center
Sun 07:51:28 PM 26.1450 -79.6828 34° Northeast 389 448 21,300 2,400 Climbing Miami Center
Sun 07:52:28 PM 26.2447 -79.6064 36° Northeast 415 478 23,500 2,150 Climbing Miami Center
Sun 07:53:28 PM 26.3336 -79.5342 28° Northeast 439 505 25,600 2,100 Climbing Miami Center
Sun 07:54:28 PM 26.4583 -79.4603 26° Northeast 451 519 27,700 1,900 Climbing Miami Center
Sun 07:55:28 PM 26.5764 -79.3956 26° Northeast 457 526 29,400 2,000 Climbing Miami Center
Sun 07:56:28 PM 26.6944 -79.3308 26° Northeast 463 533 31,700 2,250 Climbing Miami Center
Sun 07:57:28 PM 26.8103 -79.2681 24° Northeast 463 533 33,900 2,350 Climbing Miami Center
Sun 07:58:28 PM 26.9261 -79.2097 25° Northeast 463 533 36,400 2,200 Climbing Miami Center
Sun 07:59:28 PM 27.0336 -79.1536 24° Northeast 443 510 38,300 1,650 Climbing Miami Center
Sun 08:00:28 PM 27.1283 -79.1067 North 410 472 39,700 850 Climbing Miami Center
Sun 08:01:28 PM 27.2414 -79.0878 11° North 405 466 40,000 350 Climbing Miami Center
Sun 08:02:28 PM 27.3733 -79.0600 10° North 414 476 40,400 500 Climbing Miami Center
Sun 08:03:28 PM 27.4928 -79.0364 North 427 491 41,000 300 Climbing Miami Center
Sun 08:04:28 PM 27.6122 -79.0200 North 432 497 41,000  Level Miami Center
Sun 08:05:28 PM 27.7167 -79.0031 North 423 487 41,000  Level Miami Center
Sun 08:06:28 PM 27.8339 -78.9842 North 423 487 41,000  Level Miami Center
Sun 08:07:28 PM 27.9636 -78.9631 North 430 495 41,000  Level Miami Center
Sun 08:08:28 PM 28.0808 -78.9442 North 424 488 41,000  Level Miami Center
Sun 08:09:28 PM 28.1961 -78.9250 North 429 494 41,000  Level Miami Center
Sun 08:10:28 PM 28.3172 -78.9083 North 429 494 41,000  Level Miami Center
Sun 08:11:28 PM 28.4344 -78.8869 North 429 494 41,000  Level Miami Center
Sun 08:12:28 PM 28.5536 -78.8700 North 423 487 41,000  Level Miami Center
Sun 08:13:28 PM 28.6731 -78.8486 North 431 496 41,000  Level Miami Center
Sun 08:14:28 PM 28.7922 -78.8294 North 425 489 41,000  Level Miami Center
Sun 08:15:28 PM 28.9072 -78.8100 North 425 489 41,000  Level Miami Center
Sun 08:16:28 PM 29.0264 -78.7931 North 425 489 41,000  Level Miami Center
Sun 08:17:28 PM 29.1436 -78.7739 North 425 489 41,000  Level Miami Center
Sun 08:18:28 PM 29.2542 -78.7544 North 420 483 41,000  Level Miami Center
Sun 08:19:28 PM 29.3692 -78.7372 11° North 420 483 41,000  Level Miami Center
Sun 08:20:28 PM 29.4800 -78.7131 North 419 482 41,000  Level Miami Center
Sun 08:22:22 PM 29.6897 -78.6803 North 425 489 41,000  Level Jacksonville Center
Sun 08:23:22 PM 29.8061 -78.6611 North 415 478 41,000  Level Jacksonville Center
Sun 08:24:22 PM 29.9203 -78.6464 North 410 472 41,000  Level Jacksonville Center
Sun 08:25:22 PM 30.0344 -78.6269 North 404 465 41,000  Level Jacksonville Center
Sun 08:26:22 PM 30.1486 -78.6100 11° North 409 471 41,000  Level Jacksonville Center
Sun 08:27:22 PM 30.2481 -78.5886 North 393 452 41,000  Level Jacksonville Center
Sun 08:28:22 PM 30.3519 -78.5697 North 384 442 41,000  Level Jacksonville Center
Sun 08:29:22 PM 30.4722 -78.5497 North 407 468 41,000  Level Jacksonville Center
Sun 08:30:22 PM 30.5883 -78.5300 North 407 468 41,000  Level Jacksonville Center
Sun 08:31:22 PM 30.7006 -78.5128 North 412 474 41,000  Level Jacksonville Center
Sun 08:32:22 PM 30.8167 -78.4903 North 412 474 41,000  Level Jacksonville Center
Sun 08:33:22 PM 30.9308 -78.4706 North 417 480 41,000  Level Jacksonville Center
Sun 08:34:22 PM 31.0803 -78.4442 North 505 581 41,000  Level Jacksonville Center
Sun 08:35:22 PM 31.1964 -78.4267 North 459 528 41,000  Level Jacksonville Center
Sun 08:36:22 PM 31.3189 -78.4061 North 414 476 41,000  Level Jacksonville Center
Sun 08:37:22 PM 31.4392 -78.3833 North 405 466 41,000  Level Jacksonville Center
Sun 08:38:22 PM 31.5575 -78.3631 North 421 484 41,000  Level Jacksonville Center
Sun 08:39:22 PM 31.6758 -78.3450 North 449 517 41,000  Level Jacksonville Center
Sun 08:40:22 PM 31.7981 -78.3219 North 443 510 41,000  Level Jacksonville Center
Sun 08:41:22 PM 31.9164 -78.3061 North 438 504 41,000  Level Jacksonville Center
Sun 08:42:22 PM 32.0347 -78.2831 North 438 504 41,000  Level Jacksonville Center
Sun 08:43:22 PM 32.1550 -78.2647 North 432 497 41,000  Level Jacksonville Center
Sun 08:44:22 PM 32.2753 -78.2414 North 432 497 41,000  Level Jacksonville Center
Sun 08:45:22 PM 32.3917 -78.2283 10° North 426 490 41,000  Level Jacksonville Center
Sun 08:46:22 PM 32.5097 -78.2025 North 421 484 41,000  Level Jacksonville Center
Sun 08:47:22 PM 32.6300 -78.1839 North 426 490 41,000  Level Jacksonville Center
Sun 08:48:22 PM 32.7525 -78.1628 North 431 496 41,000  Level Jacksonville Center
Sun 08:49:22 PM 32.8725 -78.1392 North 437 503 41,000  Level Jacksonville Center
Sun 08:50:22 PM 32.9950 -78.1203 North 437 503 41,000  Level Jacksonville Center
Sun 08:52:19 PM 33.2303 -78.0764 North 456 525 41,000  Level Washington Center
Sun 08:53:20 PM 33.3494 -78.0575 North 445 512 41,000  Level Washington Center
Sun 08:54:20 PM 33.4667 -78.0386 North 435 501 41,000  Level Washington Center
Sun 08:55:21 PM 33.5839 -78.0172 North 425 489 41,000  Level Washington Center
Sun 08:56:19 PM 33.7014 -77.9956 North 425 489 41,000  Level Washington Center
Sun 08:57:20 PM 33.8164 -77.9764 12° North 425 489 41,000  Level Washington Center
Sun 08:58:21 PM 33.9422 -77.9450 North 440 506 41,000  Level Washington Center
Sun 08:59:19 PM 34.0594 -77.9256 North 434 499 41,000  Level Washington Center
Sun 09:00:19 PM 34.1767 -77.9064 North 429 494 41,000  Level Washington Center
Sun 09:01:20 PM 34.2814 -77.8867 North 429 494 41,000  Level Washington Center
Sun 09:02:20 PM 34.4047 -77.8725 North 429 494 41,000  Level Washington Center
Sun 09:03:20 PM 34.5197 -77.8606 North 423 487 41,000  Level Washington Center
Sun 09:04:21 PM 34.6367 -77.8486 North 423 487 41,000  Level Washington Center
Sun 09:05:21 PM 34.7517 -77.8367 North 423 487 41,000  Level Washington Center
Sun 09:06:19 PM 34.8647 -77.8222 North 423 487 41,000  Level Washington Center
Sun 09:07:19 PM 34.9797 -77.8075 North 418 481 41,000  Level Washington Center
Sun 09:08:20 PM 35.0967 -77.7981 North 413 475 41,000  Level Washington Center
Sun 09:09:20 PM 35.2222 -77.7836 North 408 470 41,000  Level Washington Center
Sun 09:10:19 PM 35.3392 -77.7717 North 408 470 41,000  Level Washington Center
Sun 09:11:19 PM 35.4500 -77.7619 North 408 470 41,000  Level Washington Center
Sun 09:12:20 PM 35.5669 -77.7497 North 408 470 41,000  Level Washington Center
Sun 09:13:19 PM 35.6819 -77.7375 North 413 475 41,000  Level Washington Center
Sun 09:14:19 PM 35.7969 -77.7253 North 413 475 41,000  Level Washington Center
Sun 09:15:21 PM 35.9142 -77.7103 11° North 413 475 41,000  Level Washington Center
Sun 09:16:19 PM 36.0272 -77.6828 20° North 413 475 41,000  Level Washington Center
Sun 09:17:20 PM 36.1386 -77.6317 18° North 418 481 41,000  Level Washington Center
Sun 09:18:20 PM 36.2522 -77.5856 19° North 428 493 41,000  Level Washington Center
Sun 09:19:21 PM 36.3636 -77.5367 19° North 428 493 41,000  Level Washington Center
Sun 09:20:19 PM 36.4603 -77.4953 19° North 419 482 41,000  Level Washington Center
Sun 09:21:20 PM 36.5714 -77.4489 20° North 414 476 41,000  Level Washington Center
Sun 09:22:21 PM 36.6808 -77.3997 19° North 414 476 41,000  Level Washington Center
Sun 09:23:21 PM 36.8067 -77.3456 19° North 414 476 41,000  Level Washington Center
Sun 09:24:19 PM 36.9181 -77.2986 19° North 414 476 41,000  Level Washington Center
Sun 09:25:20 PM 37.0292 -77.2517 19° North 414 476 41,000  Level Washington Center
Sun 09:26:20 PM 37.1403 -77.2044 19° North 414 476 41,000  Level Washington Center
Sun 09:27:19 PM 37.2494 -77.1572 23° Northeast 414 476 41,000  Level Washington Center
Sun 09:28:20 PM 37.3628 -77.0969 32° Northeast 432 497 41,000  Level Washington Center
Sun 09:29:20 PM 37.4556 -77.0228 29° Northeast 436 502 41,000  Level Washington Center
Sun 09:30:20 PM 37.5650 -76.9464 31° Northeast 442 509 41,000  Level Washington Center
Sun 09:31:21 PM 37.6681 -76.8694 31° Northeast 442 509 41,000  Level Washington Center
Sun 09:32:21 PM 37.7731 -76.7897 30° Northeast 442 509 41,000  Level Washington Center
Sun 09:33:21 PM 37.8781 -76.7125 31° Northeast 442 509 41,000  Level Washington Center
Sun 09:34:19 PM 37.9811 -76.6325 31° Northeast 437 503 41,000  Level Washington Center
Sun 09:35:19 PM 38.0839 -76.5547 30° Northeast 432 497 41,000  Level Washington Center
Sun 09:36:21 PM 38.1886 -76.4767 31° Northeast 432 497 41,000  Level Washington Center
Sun 09:37:19 PM 38.2936 -76.3958 35° Northeast 432 497 41,000  Level Washington Center
Sun 09:38:20 PM 38.4047 -76.2964 37° Northeast 437 503 41,000 -545 Level Washington Center
Sun 09:39:20 PM 38.5011 -76.2044 35° Northeast 437 503 39,900 -1,835 Descending Washington Center
Sun 09:40:21 PM 38.5994 -76.1178 36° Northeast 442 509 37,300 -2,628 Descending Washington Center
Sun 09:41:21 PM 38.7000 -76.0253 37° Northeast 437 503 34,600 -3,000 Descending Washington Center
Sun 09:42:19 PM 38.8003 -75.9272 37° Northeast 437 503 31,400 -3,407 Descending Washington Center
Sun 09:43:19 PM 38.9028 -75.8292 38° Northeast 442 509 27,900 -2,182 Descending Washington Center
Sun 09:44:20 PM 38.9986 -75.7333 36° Northeast 447 514 27,000 -443 Descending Washington Center
Sun 09:45:21 PM 39.0989 -75.6397 36° Northeast 442 509 27,000  Level Washington Center
Sun 09:46:19 PM 39.1967 -75.5486 35° Northeast 442 509 27,000 -403 Level Washington Center
Sun 09:47:20 PM 39.2989 -75.4547 35° Northeast 442 509 26,200 -934 Descending Washington Center
Sun 09:48:21 PM 39.4008 -75.3633 34° Northeast 437 503 25,100 -1,160 Descending Washington Center
Sun 09:49:19 PM 39.5006 -75.2769 35° Northeast 437 503 23,900 -1,475 Descending Washington Center
Sun 09:50:19 PM 39.6003 -75.1850 37° Northeast 437 503 22,200 -1,700 Descending Washington Center
Sun 09:51:19 PM 39.6875 -75.1008 32° Northeast 437 503 20,500 -2,182 Descending Washington Center
Sun 09:52:20 PM 39.7975 -75.0108 38° Northeast 432 497 17,800 -2,400 Descending Washington Center
Sun 09:54:19 PM 39.9653 -74.8389 49° Northeast 406 467 13,300 -2,009 Descending Washington Center
Sun 09:56:13 PM 40.1000 -74.6333 49° Northeast 368 423 10,000 -1,138 Descending New TRACON
Sun 09:57:13 PM 40.1667 -74.5333 44° Northeast 371 427 10,000  Level New TRACON
Sun 09:58:07 PM 40.2333 -74.4500 37° Northeast 371 427 10,000  Level New TRACON
Sun 09:59:13 PM 40.3167 -74.3667 37° Northeast 323 372 10,000 -714 Level New TRACON
Sun 10:00:13 PM 40.3833 -74.3000 37° Northeast 298 343 8,500 -1,450 Descending New TRACON
Sun 10:01:13 PM 40.4500 -74.2333 45° Northeast 292 336 7,100 -800 Descending New TRACON
Sun 10:02:13 PM 40.5000 -74.1667 37° Northeast 272 313 6,900 -700 Descending New TRACON
Sun 10:03:13 PM 40.5667 -74.1000 37° Northeast 263 303 5,700 -1,350 Descending New TRACON
Sun 10:04:13 PM 40.6167 -74.0500 37° Northeast 261 300 4,200 -850 Descending New TRACON
Sun 10:05:13 PM 40.6833 -73.9833 62° Northeast 263 303 4,000 -190 Descending New TRACON
Sun 10:06:19 PM 40.7167 -73.9000 62° Northeast 263 303 3,800 -476 Descending New TRACON
Sun 10:07:19 PM 40.7500 -73.8167 27° Northeast 244 281 3,000 -600 Descending New TRACON
Sun 10:08:19 PM 40.8000 -73.7833 21° North 183 211 2,600 -500 Descending New TRACON
Sun 10:09:19 PM 40.8333 -73.7667 21° North 169 194 2,000 -600 Descending New TRACON

Login

Don't have an account? Register now (free) for customized features, flight alerts, and more!